Terminal Aerodrome Forecast
Issued by NWS Atlanta, GA

Home | Current Version | Previous Version | Text Only | Print | Product List | Glossary On
Versions: 1 2 3 4 5 6 7 8 9 10 11 12 13
000
FTUS42 KFFC 281731
TAFMCN
TAF
KMCN 281731Z 2818/2918 22006KT 4SM BR OVC015
     FM290300 00000KT 2SM -RA BR OVC005
     FM291700 36003KT P6SM OVC006=

USA.gov is the U.S. government's official web portal to all federal, state and local government web resources and services.